KLSF/LSF METAR and TAF weather

Enter ICAO airport designator
Station Type Date Time Source
KLSF METAR 2019/08/21 03:56 UTC NOAA

KLSF 210356Z AUTO 00000KT 10SM CLR 23/23 A3011 RMK AO2 SLP199 T02310231


Station Type Date Time Source
KLSF Decoded METAR 2019/08/21 03:56 UTC NOAA

Station name not available
Aug 20, 2019 - 11:56 PM EDT / 2019.08.21 0356 UTC
Wind: Calm:0
Visibility: 10 mile(s):0
Sky conditions: clear
Temperature: 73.6 F (23.1 C)
Dew Point: 73.6 F (23.1 C)
Relative Humidity: 100%
Pressure (altimeter): 30.11 in. Hg (1019 hPa)
ob: KLSF 210356Z AUTO 00000KT 10SM CLR 23/23 A3011 RMK AO2 SLP199 T02310231
cycle: 4

Station Type Date Time Source
KLSF TAF 2019/08/20 22:21 UTC NOAA

TAF TAF
AMD KLSF 202211Z 2022/2123 VRB06KT 9999 VCTS SCT050CB QNH3004INS
TEMPO 2022/2101 VRB10G15KT 6000 TSRA BKN040CB
BECMG 2101/2102 VRB06KT 9999 NSW SCT020 QNH3010INS
BECMG 2104/2105 VRB06KT 4800 BR SCT006 QNH3008INS
TEMPO 2109/2111 VRB06KT BKN006
BECMG 2113/2114 VRB06KT 9999 NSW SCT015 QNH3008INS
BECMG 2117/2118 VRB06KT 9999 SCT050 QNH3001INS TX28/2022Z TN22/2111Z

Example: see airport list